createdAt,value
2017-08-18T00:00:15.771Z,0
2017-08-18T00:00:41.964Z,0
2017-08-18T00:01:08.111Z,0
2017-08-18T00:01:34.300Z,0
2017-08-18T00:02:00.497Z,0
2017-08-18T00:02:26.670Z,0
2017-08-18T00:02:52.825Z,0
2017-08-18T00:03:18.994Z,0
2017-08-18T00:03:45.124Z,0
2017-08-18T00:04:11.341Z,0
2017-08-18T00:04:37.518Z,0
2017-08-18T00:05:03.704Z,0
2017-08-18T00:05:30.005Z,0
2017-08-18T00:05:56.084Z,0
2017-08-18T00:06:22.354Z,0
2017-08-18T00:06:48.538Z,0
2017-08-18T00:07:14.696Z,0
2017-08-18T00:07:40.960Z,0
2017-08-18T00:08:07.162Z,0
2017-08-18T00:08:33.345Z,0
2017-08-18T00:08:59.507Z,0
2017-08-18T00:09:25.712Z,0
2017-08-18T00:09:51.863Z,0
2017-08-18T00:10:18.059Z,0
2017-08-18T00:10:44.305Z,0
2017-08-18T00:11:10.474Z,0
2017-08-18T00:11:36.712Z,0
2017-08-18T00:12:02.931Z,0
2017-08-18T00:12:29.147Z,0
2017-08-18T00:12:55.323Z,0
2017-08-18T00:13:21.476Z,0
2017-08-18T00:13:47.701Z,0
2017-08-18T00:14:13.858Z,0
2017-08-18T00:14:40.000Z,0
2017-08-18T00:15:06.202Z,0
2017-08-18T00:15:32.419Z,0
2017-08-18T00:15:58.568Z,0
2017-08-18T00:16:24.765Z,0
2017-08-18T00:16:50.953Z,0
2017-08-18T00:17:17.124Z,0
2017-08-18T00:17:43.251Z,0
2017-08-18T00:18:09.465Z,0
2017-08-18T00:18:35.657Z,0
2017-08-18T00:19:01.845Z,0
2017-08-18T00:19:27.958Z,0
2017-08-18T00:19:54.185Z,0
2017-08-18T00:20:20.406Z,0
2017-08-18T00:20:46.554Z,0
2017-08-18T00:21:12.739Z,0
2017-08-18T00:21:38.969Z,0
2017-08-18T00:22:05.138Z,0
2017-08-18T00:22:31.295Z,0
2017-08-18T00:22:57.489Z,0
2017-08-18T00:23:23.723Z,0
2017-08-18T00:23:49.916Z,0
2017-08-18T00:24:16.059Z,0
2017-08-18T00:24:42.279Z,0
2017-08-18T00:25:08.474Z,0
2017-08-18T00:25:34.651Z,0
2017-08-18T00:26:00.828Z,0
2017-08-18T00:26:26.936Z,0
2017-08-18T00:26:53.113Z,0
2017-08-18T00:27:19.291Z,0
2017-08-18T00:27:45.487Z,0
2017-08-18T00:28:11.642Z,0
2017-08-18T00:28:37.787Z,0
2017-08-18T00:29:03.947Z,0
2017-08-18T00:29:30.133Z,0
2017-08-18T00:29:56.280Z,0
2017-08-18T00:30:22.439Z,0
2017-08-18T00:30:48.564Z,0
2017-08-18T00:31:14.737Z,0
2017-08-18T00:31:40.958Z,0
2017-08-18T00:32:07.083Z,0
2017-08-18T00:32:33.226Z,0
2017-08-18T00:32:59.407Z,0
2017-08-18T00:33:25.669Z,0
2017-08-18T00:33:51.842Z,0
2017-08-18T00:34:18.027Z,0
2017-08-18T00:34:44.208Z,0
2017-08-18T00:35:10.401Z,0
2017-08-18T00:35:36.599Z,0
2017-08-18T00:36:02.742Z,0
2017-08-18T00:36:28.898Z,0
2017-08-18T00:36:55.093Z,0
2017-08-18T00:37:21.315Z,0
2017-08-18T00:37:47.427Z,0
2017-08-18T00:38:13.625Z,0
2017-08-18T00:38:39.838Z,0
2017-08-18T00:39:06.045Z,0
2017-08-18T00:39:32.274Z,0
2017-08-18T00:39:58.462Z,0
2017-08-18T00:40:24.657Z,0
2017-08-18T00:40:50.840Z,0
2017-08-18T00:41:17.053Z,0
2017-08-18T00:41:43.241Z,0
2017-08-18T00:42:09.418Z,0
2017-08-18T00:42:35.623Z,0
2017-08-18T00:43:01.819Z,0
2017-08-18T00:43:28.069Z,0
2017-08-18T00:43:54.273Z,0
2017-08-18T00:44:20.433Z,0
2017-08-18T00:44:46.624Z,0
2017-08-18T00:45:12.796Z,0
2017-08-18T00:45:39.018Z,0
2017-08-18T00:46:05.160Z,0
2017-08-18T00:46:31.300Z,0
2017-08-18T00:46:57.481Z,0
2017-08-18T00:47:23.656Z,0
2017-08-18T00:47:49.875Z,0
2017-08-18T00:48:16.001Z,0
2017-08-18T00:48:42.116Z,0
2017-08-18T00:49:08.305Z,0
2017-08-18T00:49:34.470Z,0
2017-08-18T00:50:00.645Z,0
2017-08-18T00:50:26.855Z,0
2017-08-18T00:50:53.012Z,0
2017-08-18T00:51:19.164Z,0
2017-08-18T00:51:45.350Z,0
2017-08-18T00:52:11.526Z,0
2017-08-18T00:52:37.717Z,0
2017-08-18T00:53:03.910Z,0
2017-08-18T00:53:30.079Z,0
2017-08-18T00:53:56.288Z,0
2017-08-18T00:54:22.422Z,0
2017-08-18T00:54:48.621Z,0
2017-08-18T00:55:14.775Z,0
2017-08-18T00:55:40.935Z,0
2017-08-18T00:56:07.118Z,0
2017-08-18T00:56:33.262Z,0
2017-08-18T00:56:59.484Z,0
2017-08-18T00:57:25.639Z,0
2017-08-18T00:57:51.839Z,0
2017-08-18T00:58:18.017Z,0
2017-08-18T00:58:44.221Z,0
2017-08-18T00:59:10.413Z,0
2017-08-18T00:59:36.648Z,0
2017-08-18T01:00:02.793Z,0
2017-08-18T01:00:28.958Z,0
2017-08-18T01:00:55.146Z,0
2017-08-18T01:01:21.286Z,0
2017-08-18T01:01:47.483Z,0
2017-08-18T01:02:13.635Z,0
2017-08-18T01:02:39.822Z,0
2017-08-18T01:03:06.028Z,0
2017-08-18T01:03:32.229Z,0
2017-08-18T01:03:58.392Z,0
2017-08-18T01:04:24.546Z,0
2017-08-18T01:04:50.715Z,0
2017-08-18T01:05:16.871Z,0
2017-08-18T01:05:43.056Z,0
2017-08-18T01:06:09.257Z,0
2017-08-18T01:06:35.450Z,0
2017-08-18T01:07:01.608Z,0
2017-08-18T01:07:27.809Z,0
2017-08-18T01:07:53.965Z,0
2017-08-18T01:08:20.180Z,0
2017-08-18T01:08:46.403Z,0
2017-08-18T01:09:12.591Z,0
2017-08-18T01:09:38.762Z,0
2017-08-18T01:10:04.889Z,0
2017-08-18T01:10:31.082Z,0
2017-08-18T01:10:57.260Z,0
2017-08-18T01:11:23.474Z,0
2017-08-18T01:11:49.670Z,0
2017-08-18T01:12:15.885Z,0
2017-08-18T01:12:42.036Z,0
2017-08-18T01:13:08.299Z,0
2017-08-18T01:13:34.483Z,0
2017-08-18T01:14:00.654Z,0
2017-08-18T01:14:26.890Z,0
2017-08-18T01:14:53.046Z,0
2017-08-18T01:15:19.221Z,0
2017-08-18T01:15:45.411Z,0
2017-08-18T01:16:11.537Z,0
2017-08-18T01:16:37.739Z,0
2017-08-18T01:17:03.931Z,0
2017-08-18T01:17:30.127Z,0
2017-08-18T01:17:56.268Z,0
2017-08-18T01:18:22.479Z,0
2017-08-18T01:18:48.609Z,0
2017-08-18T01:19:14.760Z,0
2017-08-18T01:19:40.921Z,0
2017-08-18T01:20:07.093Z,0
2017-08-18T01:20:33.275Z,0
2017-08-18T01:20:59.476Z,0
2017-08-18T01:21:25.646Z,0
2017-08-18T01:21:51.835Z,0
2017-08-18T01:22:18.028Z,0
2017-08-18T01:22:44.207Z,0
2017-08-18T01:23:10.414Z,0
2017-08-18T01:23:36.646Z,0
2017-08-18T01:24:02.762Z,0
2017-08-18T01:24:28.935Z,0
2017-08-18T01:24:55.122Z,0
2017-08-18T01:25:21.332Z,0
2017-08-18T01:25:47.557Z,0
2017-08-18T01:26:13.700Z,0
2017-08-18T01:26:39.879Z,0
2017-08-18T01:27:06.043Z,0
2017-08-18T01:27:32.226Z,0
2017-08-18T01:27:58.398Z,0
2017-08-18T01:28:24.663Z,0
2017-08-18T01:28:50.840Z,0
2017-08-18T01:29:16.988Z,0
2017-08-18T01:29:43.178Z,0
2017-08-18T01:30:09.341Z,0
2017-08-18T01:30:35.525Z,0
2017-08-18T01:31:01.710Z,0
2017-08-18T01:31:27.912Z,0
2017-08-18T01:31:54.176Z,0
2017-08-18T01:32:20.359Z,0
2017-08-18T01:32:46.504Z,0
2017-08-18T01:33:12.662Z,0
2017-08-18T01:33:38.822Z,0
2017-08-18T01:34:05.028Z,0
2017-08-18T01:34:31.179Z,0
2017-08-18T01:34:57.411Z,0
2017-08-18T01:35:23.611Z,0
2017-08-18T01:35:49.802Z,0
2017-08-18T01:36:16.045Z,0
2017-08-18T01:36:42.267Z,0
2017-08-18T01:37:08.497Z,0
2017-08-18T01:37:34.695Z,0
2017-08-18T01:38:00.920Z,0
2017-08-18T01:38:27.078Z,0
2017-08-18T01:38:53.218Z,0
2017-08-18T01:39:19.405Z,0
2017-08-18T01:39:45.633Z,0
2017-08-18T01:40:11.781Z,0
2017-08-18T01:40:37.965Z,0
2017-08-18T01:41:04.166Z,0
2017-08-18T01:41:30.350Z,0
2017-08-18T01:41:56.577Z,0
2017-08-18T01:42:22.774Z,0
2017-08-18T01:42:48.958Z,0
2017-08-18T01:43:15.152Z,0
2017-08-18T01:43:41.332Z,0
2017-08-18T01:44:07.537Z,0
2017-08-18T01:44:33.701Z,0
2017-08-18T01:44:59.850Z,0
2017-08-18T01:45:26.054Z,0
2017-08-18T01:45:52.216Z,0
2017-08-18T01:46:18.337Z,0
2017-08-18T01:46:44.515Z,0
2017-08-18T01:47:10.738Z,0
2017-08-18T01:47:36.912Z,0
2017-08-18T01:48:03.075Z,0
2017-08-18T01:48:29.230Z,0
2017-08-18T01:48:55.466Z,0
2017-08-18T01:49:21.667Z,0
2017-08-18T01:49:47.819Z,0
2017-08-18T01:50:13.966Z,0
2017-08-18T01:50:40.186Z,0
2017-08-18T01:51:06.409Z,0
2017-08-18T01:51:32.581Z,0
2017-08-18T01:51:58.801Z,0
2017-08-18T01:52:24.996Z,0
2017-08-18T01:52:51.147Z,0
2017-08-18T01:53:17.361Z,0
2017-08-18T01:53:43.505Z,0
2017-08-18T01:54:09.693Z,0
2017-08-18T01:54:35.901Z,0
2017-08-18T01:55:02.077Z,0
2017-08-18T01:55:28.290Z,0
2017-08-18T01:55:54.491Z,0
2017-08-18T01:56:20.604Z,0
2017-08-18T01:56:46.817Z,0
2017-08-18T01:57:13.101Z,0
2017-08-18T01:57:39.194Z,0
2017-08-18T01:58:05.399Z,0
2017-08-18T01:58:31.596Z,0
2017-08-18T01:58:57.745Z,0
2017-08-18T01:59:23.886Z,0
2017-08-18T01:59:50.058Z,0
2017-08-18T02:00:16.239Z,0
2017-08-18T02:00:42.442Z,0
2017-08-18T02:01:08.673Z,0
2017-08-18T02:01:34.893Z,0
2017-08-18T02:02:01.042Z,0
2017-08-18T02:02:27.198Z,0
2017-08-18T02:02:53.397Z,0
2017-08-18T02:03:19.599Z,0
2017-08-18T02:03:45.791Z,0
2017-08-18T02:04:11.972Z,0
2017-08-18T02:04:38.132Z,0
2017-08-18T02:05:04.289Z,0
2017-08-18T02:05:30.429Z,0
2017-08-18T02:05:56.611Z,0
2017-08-18T02:06:22.806Z,0
2017-08-18T02:06:49.004Z,0
2017-08-18T02:07:15.186Z,0
2017-08-18T02:07:41.345Z,0
2017-08-18T02:08:07.548Z,0
2017-08-18T02:08:33.754Z,0
2017-08-18T02:08:59.919Z,0
2017-08-18T02:09:26.105Z,0
2017-08-18T02:09:52.262Z,0
2017-08-18T02:10:18.437Z,0
2017-08-18T02:10:44.621Z,0
2017-08-18T02:11:10.818Z,0
2017-08-18T02:11:37.024Z,0
2017-08-18T02:12:03.239Z,0
2017-08-18T02:12:29.401Z,0
2017-08-18T02:12:55.622Z,0
2017-08-18T02:13:21.794Z,0
2017-08-18T02:13:47.960Z,0
2017-08-18T02:14:14.170Z,0
2017-08-18T02:14:40.311Z,0
2017-08-18T02:15:06.537Z,0
2017-08-18T02:15:32.750Z,0
2017-08-18T02:15:58.914Z,0
2017-08-18T02:16:25.093Z,0
2017-08-18T02:16:51.276Z,0
2017-08-18T02:17:17.479Z,0
2017-08-18T02:17:43.659Z,0
2017-08-18T02:18:09.854Z,0
2017-08-18T02:18:36.076Z,0
2017-08-18T02:19:02.264Z,0
2017-08-18T02:19:28.403Z,0
2017-08-18T02:19:54.640Z,0
2017-08-18T02:20:20.796Z,0
2017-08-18T02:20:46.967Z,0
2017-08-18T02:21:13.086Z,0
2017-08-18T02:21:39.305Z,0
2017-08-18T02:22:05.538Z,0
2017-08-18T02:22:31.686Z,0
2017-08-18T02:22:57.815Z,0
2017-08-18T02:23:24.046Z,0
2017-08-18T02:23:50.218Z,0
2017-08-18T02:24:16.370Z,0
2017-08-18T02:24:42.550Z,0
2017-08-18T02:25:08.712Z,0
2017-08-18T02:25:34.867Z,0
2017-08-18T02:26:01.013Z,0
2017-08-18T02:26:27.226Z,0
2017-08-18T02:26:53.368Z,0
2017-08-18T02:27:19.505Z,0
2017-08-18T02:27:45.667Z,0
2017-08-18T02:28:11.877Z,0
2017-08-18T02:28:38.020Z,0
2017-08-18T02:29:04.261Z,0
2017-08-18T02:29:30.445Z,0
2017-08-18T02:29:56.583Z,0
2017-08-18T02:30:22.766Z,0
2017-08-18T02:30:48.923Z,0
2017-08-18T02:31:15.122Z,0
2017-08-18T02:31:41.354Z,0
2017-08-18T02:32:07.590Z,0
2017-08-18T02:32:33.774Z,0
2017-08-18T02:32:59.961Z,0
2017-08-18T02:33:26.095Z,0
2017-08-18T02:33:52.332Z,0
2017-08-18T02:34:18.487Z,0
2017-08-18T02:34:44.682Z,0
2017-08-18T02:35:10.832Z,0
2017-08-18T02:35:37.050Z,0
2017-08-18T02:36:03.192Z,0
2017-08-18T02:36:29.391Z,0
2017-08-18T02:36:55.577Z,0
2017-08-18T02:37:21.753Z,0
2017-08-18T02:37:47.946Z,0
2017-08-18T02:38:14.139Z,0
2017-08-18T02:38:40.319Z,0
2017-08-18T02:39:06.476Z,0
2017-08-18T02:39:32.619Z,0
2017-08-18T02:39:58.812Z,0
2017-08-18T02:40:25.034Z,0
2017-08-18T02:40:51.267Z,0
2017-08-18T02:41:17.460Z,0
2017-08-18T02:41:43.588Z,0
2017-08-18T02:42:09.827Z,0
2017-08-18T02:42:35.993Z,0
2017-08-18T02:43:02.210Z,0
2017-08-18T02:43:28.460Z,0
2017-08-18T02:43:54.627Z,0
2017-08-18T02:44:20.807Z,0
2017-08-18T02:44:47.008Z,0
2017-08-18T02:45:13.228Z,0
2017-08-18T02:45:39.435Z,0
2017-08-18T02:46:05.660Z,0
2017-08-18T02:46:31.832Z,0
2017-08-18T02:46:58.030Z,0
2017-08-18T02:47:24.190Z,0
2017-08-18T02:47:50.395Z,0
2017-08-18T02:48:16.622Z,0
2017-08-18T02:48:42.831Z,0
2017-08-18T02:49:09.105Z,0
2017-08-18T02:49:35.260Z,0
2017-08-18T02:50:01.451Z,0
2017-08-18T02:50:27.596Z,0
2017-08-18T02:50:53.814Z,0
2017-08-18T02:51:20.049Z,0
2017-08-18T02:51:46.217Z,0
2017-08-18T02:52:12.438Z,0
2017-08-18T02:52:38.585Z,0
2017-08-18T02:53:04.753Z,0
2017-08-18T02:53:30.966Z,0
2017-08-18T02:53:57.183Z,0
2017-08-18T02:54:23.360Z,0
2017-08-18T02:54:49.568Z,0
2017-08-18T02:55:15.764Z,0
2017-08-18T02:55:41.924Z,0
2017-08-18T02:56:08.039Z,0
2017-08-18T02:56:34.174Z,0
2017-08-18T02:57:00.426Z,0
2017-08-18T02:57:26.647Z,0
2017-08-18T02:57:52.783Z,0
2017-08-18T02:58:18.961Z,0
2017-08-18T02:58:45.124Z,0
2017-08-18T02:59:11.289Z,0
2017-08-18T02:59:37.465Z,0
2017-08-18T03:00:03.608Z,0
2017-08-18T03:00:29.793Z,0
2017-08-18T03:00:55.946Z,0
2017-08-18T03:01:22.114Z,0
2017-08-18T03:01:48.268Z,0
2017-08-18T03:02:14.459Z,0
2017-08-18T03:02:40.645Z,0
2017-08-18T03:03:06.823Z,0
2017-08-18T03:03:33.005Z,0
2017-08-18T03:03:59.203Z,0
2017-08-18T03:04:25.371Z,0
2017-08-18T03:04:51.531Z,0
2017-08-18T03:05:17.740Z,0
2017-08-18T03:05:43.865Z,0
2017-08-18T03:06:10.059Z,0
2017-08-18T03:06:36.271Z,0
2017-08-18T03:07:02.427Z,0
2017-08-18T03:07:28.630Z,0
2017-08-18T03:07:54.798Z,0
2017-08-18T03:08:20.987Z,0
2017-08-18T03:08:47.129Z,0
2017-08-18T03:09:13.321Z,0
2017-08-18T03:09:39.603Z,0
2017-08-18T03:10:05.751Z,0
2017-08-18T03:10:31.924Z,0
2017-08-18T03:10:58.132Z,0
2017-08-18T03:11:24.359Z,0
2017-08-18T03:11:50.579Z,0
2017-08-18T03:12:16.755Z,0
2017-08-18T03:12:42.952Z,0
2017-08-18T03:13:09.109Z,0
2017-08-18T03:13:35.267Z,0
2017-08-18T03:14:01.426Z,0
2017-08-18T03:14:27.610Z,0
2017-08-18T03:14:53.733Z,0
2017-08-18T03:15:19.984Z,0
2017-08-18T03:15:46.169Z,0
2017-08-18T03:16:12.296Z,0
2017-08-18T03:16:38.500Z,0
2017-08-18T03:17:04.671Z,0
2017-08-18T03:17:30.838Z,0
2017-08-18T03:17:57.023Z,0
2017-08-18T03:18:23.186Z,0
2017-08-18T03:18:49.374Z,0
2017-08-18T03:19:15.580Z,0
2017-08-18T03:19:41.740Z,0
2017-08-18T03:20:07.938Z,0
2017-08-18T03:20:34.059Z,0
2017-08-18T03:21:00.277Z,0
2017-08-18T03:21:26.421Z,0
2017-08-18T03:21:52.564Z,0
2017-08-18T03:22:18.789Z,0
2017-08-18T03:22:44.940Z,0
2017-08-18T03:23:11.156Z,0
2017-08-18T03:23:37.348Z,0
2017-08-18T03:24:03.556Z,0
2017-08-18T03:24:29.781Z,0
2017-08-18T03:24:55.968Z,0
2017-08-18T03:25:22.165Z,0
2017-08-18T03:25:48.380Z,0
2017-08-18T03:26:14.591Z,0
2017-08-18T03:26:40.702Z,0
2017-08-18T03:27:06.924Z,0
2017-08-18T03:27:33.105Z,0
2017-08-18T03:27:59.297Z,0
2017-08-18T03:28:25.454Z,0
2017-08-18T03:28:51.635Z,0
2017-08-18T03:29:17.778Z,0
2017-08-18T03:29:43.929Z,0
2017-08-18T03:30:10.115Z,0
2017-08-18T03:30:36.274Z,0
2017-08-18T03:31:02.512Z,0
2017-08-18T03:31:28.729Z,0
2017-08-18T03:31:54.867Z,0
2017-08-18T03:32:21.041Z,0
2017-08-18T03:32:47.200Z,0
2017-08-18T03:33:13.344Z,0
2017-08-18T03:33:39.502Z,0
2017-08-18T03:34:05.642Z,0
2017-08-18T03:34:31.792Z,0
2017-08-18T03:34:57.983Z,0
2017-08-18T03:35:24.089Z,0
2017-08-18T03:35:50.324Z,0
2017-08-18T03:36:16.482Z,0
2017-08-18T03:36:42.694Z,0
2017-08-18T03:37:08.860Z,0
2017-08-18T03:37:35.024Z,0
2017-08-18T03:38:01.172Z,0
2017-08-18T03:38:27.395Z,0
2017-08-18T03:38:53.550Z,0
2017-08-18T03:39:19.782Z,0
2017-08-18T03:39:45.970Z,0
2017-08-18T03:40:12.153Z,0
2017-08-18T03:40:38.287Z,0
2017-08-18T03:41:04.510Z,0
2017-08-18T03:41:30.719Z,0
2017-08-18T03:41:56.883Z,0
2017-08-18T03:42:23.074Z,0
2017-08-18T03:42:49.309Z,0
2017-08-18T03:43:15.500Z,0
2017-08-18T03:43:41.677Z,0
2017-08-18T03:44:07.834Z,0
2017-08-18T03:44:34.048Z,0
2017-08-18T03:45:00.163Z,0
2017-08-18T03:45:26.273Z,0
2017-08-18T03:45:52.451Z,0
2017-08-18T03:46:18.602Z,0
2017-08-18T03:46:44.714Z,0
2017-08-18T03:47:10.922Z,0
2017-08-18T03:47:37.107Z,0
2017-08-18T03:48:03.273Z,0
2017-08-18T03:48:29.449Z,0
2017-08-18T03:48:55.641Z,0
2017-08-18T03:49:21.811Z,0
2017-08-18T03:49:47.953Z,0
2017-08-18T03:50:14.136Z,0
2017-08-18T03:50:40.293Z,0
2017-08-18T03:51:06.449Z,0
2017-08-18T03:51:32.643Z,0
2017-08-18T03:51:58.765Z,0
2017-08-18T03:52:24.892Z,0
2017-08-18T03:52:51.057Z,0
2017-08-18T03:53:17.230Z,0
2017-08-18T03:53:43.388Z,0
2017-08-18T03:54:09.570Z,0
2017-08-18T03:54:35.705Z,0
2017-08-18T03:55:01.871Z,0
2017-08-18T03:55:28.050Z,0
2017-08-18T03:55:54.238Z,0
2017-08-18T03:56:20.409Z,0
2017-08-18T03:56:46.639Z,0
2017-08-18T03:57:12.855Z,0
2017-08-18T03:57:39.002Z,0
2017-08-18T03:58:05.141Z,0
2017-08-18T03:58:31.367Z,0
2017-08-18T03:58:57.484Z,0
2017-08-18T03:59:23.653Z,0
2017-08-18T03:59:49.841Z,0
2017-08-18T04:00:16.089Z,0
2017-08-18T04:00:42.286Z,0
2017-08-18T04:01:08.467Z,0
2017-08-18T04:01:34.672Z,0
2017-08-18T04:02:00.836Z,0
2017-08-18T04:02:27.047Z,0
2017-08-18T04:02:53.212Z,0
2017-08-18T04:03:19.402Z,0
2017-08-18T04:03:45.549Z,0
2017-08-18T04:04:11.720Z,0
2017-08-18T04:04:37.901Z,0
2017-08-18T04:05:04.061Z,0
2017-08-18T04:05:30.192Z,0
2017-08-18T04:05:56.397Z,0
2017-08-18T04:06:22.617Z,0
2017-08-18T04:06:48.754Z,0
2017-08-18T04:07:14.967Z,0
2017-08-18T04:07:41.136Z,0
2017-08-18T04:08:07.290Z,0
2017-08-18T04:08:33.477Z,0
2017-08-18T04:08:59.675Z,0
2017-08-18T04:09:25.823Z,0
2017-08-18T04:09:52.042Z,0
2017-08-18T04:10:18.208Z,0
2017-08-18T04:10:44.353Z,0
2017-08-18T04:11:10.509Z,0
2017-08-18T04:11:36.682Z,0
2017-08-18T04:12:02.847Z,0
2017-08-18T04:12:29.007Z,0
2017-08-18T04:12:55.123Z,0
2017-08-18T04:13:21.292Z,0
2017-08-18T04:13:47.445Z,0
2017-08-18T04:14:13.688Z,0
2017-08-18T04:14:39.830Z,0
2017-08-18T04:15:06.044Z,0
2017-08-18T04:15:32.257Z,0
2017-08-18T04:15:58.396Z,0
2017-08-18T04:16:24.541Z,0
2017-08-18T04:16:50.762Z,0
2017-08-18T04:17:16.905Z,0
2017-08-18T04:17:43.081Z,0
2017-08-18T04:18:09.257Z,5
2017-08-18T04:18:35.469Z,5
2017-08-18T04:19:01.699Z,5
2017-08-18T04:19:27.836Z,5
2017-08-18T04:19:53.981Z,5
2017-08-18T04:20:20.231Z,5
2017-08-18T04:20:46.434Z,5
2017-08-18T04:21:12.637Z,5
2017-08-18T04:21:38.792Z,5
2017-08-18T04:22:04.996Z,5
2017-08-18T04:22:31.198Z,5
2017-08-18T04:22:57.360Z,5
2017-08-18T04:23:23.510Z,5
2017-08-18T04:23:49.660Z,5
2017-08-18T04:24:15.864Z,5
2017-08-18T04:24:42.006Z,5
2017-08-18T04:25:08.231Z,10
2017-08-18T04:25:34.405Z,10
2017-08-18T04:26:00.550Z,5
2017-08-18T04:26:26.749Z,5
2017-08-18T04:26:52.954Z,5
2017-08-18T04:27:19.145Z,5
2017-08-18T04:27:45.301Z,5
2017-08-18T04:28:11.483Z,5
2017-08-18T04:28:37.648Z,5
2017-08-18T04:29:03.824Z,5
2017-08-18T04:29:29.987Z,5
2017-08-18T04:29:56.149Z,5
2017-08-18T04:30:22.353Z,10
2017-08-18T04:30:48.548Z,10
2017-08-18T04:31:14.761Z,10
2017-08-18T04:31:40.891Z,10
2017-08-18T04:32:07.054Z,10
2017-08-18T04:32:33.213Z,10
2017-08-18T04:32:59.368Z,10
2017-08-18T04:33:25.570Z,10
2017-08-18T04:33:51.775Z,10
2017-08-18T04:34:18.001Z,10
2017-08-18T04:34:44.144Z,10
2017-08-18T04:35:10.331Z,10
2017-08-18T04:35:36.502Z,10
2017-08-18T04:36:02.688Z,10
2017-08-18T04:36:28.874Z,10
2017-08-18T04:36:55.013Z,10
2017-08-18T04:37:21.214Z,10
2017-08-18T04:37:47.440Z,15
2017-08-18T04:38:13.611Z,15
2017-08-18T04:38:39.792Z,15
2017-08-18T04:39:06.008Z,15
2017-08-18T04:39:32.187Z,15
2017-08-18T04:39:58.352Z,15
2017-08-18T04:40:24.508Z,15
2017-08-18T04:40:50.628Z,20
2017-08-18T04:41:16.817Z,20
2017-08-18T04:41:43.052Z,20
2017-08-18T04:42:09.202Z,20
2017-08-18T04:42:35.360Z,20
2017-08-18T04:43:01.504Z,20
2017-08-18T04:43:27.675Z,20
2017-08-18T04:43:53.801Z,20
2017-08-18T04:44:20.009Z,25
2017-08-18T04:44:46.201Z,25
2017-08-18T04:45:12.389Z,25
2017-08-18T04:45:38.542Z,25
2017-08-18T04:46:04.752Z,25
2017-08-18T04:46:30.985Z,25
2017-08-18T04:46:57.153Z,25
2017-08-18T04:47:23.309Z,25
2017-08-18T04:47:49.461Z,30
2017-08-18T04:48:15.601Z,30
2017-08-18T04:48:41.756Z,30
2017-08-18T04:49:07.902Z,30
2017-08-18T04:49:34.070Z,30
2017-08-18T04:50:00.199Z,30
2017-08-18T04:50:26.388Z,30
2017-08-18T04:50:52.525Z,30
2017-08-18T04:51:18.728Z,30
2017-08-18T04:51:44.940Z,30
2017-08-18T04:52:11.146Z,30
2017-08-18T04:52:37.329Z,30
2017-08-18T04:53:03.497Z,30
2017-08-18T04:53:29.706Z,30
2017-08-18T04:53:55.896Z,30
2017-08-18T04:54:22.034Z,35
2017-08-18T04:54:48.210Z,35
2017-08-18T04:55:14.431Z,35
2017-08-18T04:55:40.634Z,35
2017-08-18T04:56:06.781Z,35
2017-08-18T04:56:33.007Z,35
2017-08-18T04:56:59.214Z,35
2017-08-18T04:57:25.410Z,35
2017-08-18T04:57:51.602Z,35
2017-08-18T04:58:17.809Z,35
2017-08-18T04:58:43.949Z,35
2017-08-18T04:59:10.073Z,35
2017-08-18T04:59:36.196Z,35
2017-08-18T05:00:02.360Z,35
2017-08-18T05:00:28.511Z,35
2017-08-18T05:00:54.736Z,35
2017-08-18T05:01:20.937Z,35
2017-08-18T05:01:47.168Z,35
2017-08-18T05:02:13.395Z,35
2017-08-18T05:02:39.570Z,35
2017-08-18T05:03:05.786Z,35
2017-08-18T05:03:31.980Z,35
2017-08-18T05:03:58.191Z,35
2017-08-18T05:04:24.318Z,35
2017-08-18T05:04:50.509Z,35
2017-08-18T05:05:16.658Z,35
2017-08-18T05:05:42.843Z,35
2017-08-18T05:06:09.048Z,35
2017-08-18T05:06:35.218Z,35
2017-08-18T05:07:01.505Z,35
2017-08-18T05:07:27.704Z,35
2017-08-18T05:07:53.872Z,35
2017-08-18T05:08:20.027Z,30
2017-08-18T05:08:46.177Z,30
2017-08-18T05:09:12.364Z,30
2017-08-18T05:09:38.533Z,30
2017-08-18T05:10:04.764Z,30
2017-08-18T05:10:30.982Z,25
2017-08-18T05:10:57.155Z,25
2017-08-18T05:11:23.376Z,25
2017-08-18T05:11:49.568Z,25
2017-08-18T05:12:15.807Z,25
2017-08-18T05:12:42.008Z,25
2017-08-18T05:13:08.252Z,25
2017-08-18T05:13:34.438Z,20
2017-08-18T05:14:00.586Z,20
2017-08-18T05:14:26.793Z,20
2017-08-18T05:14:52.959Z,20
2017-08-18T05:15:19.122Z,20
2017-08-18T05:15:45.389Z,20
2017-08-18T05:16:11.561Z,20
2017-08-18T05:16:37.745Z,20
2017-08-18T05:17:03.930Z,20
2017-08-18T05:17:30.100Z,20
2017-08-18T05:17:56.284Z,20
2017-08-18T05:18:22.447Z,20
2017-08-18T05:18:48.551Z,25
2017-08-18T05:19:14.730Z,25
2017-08-18T05:19:40.904Z,25
2017-08-18T05:20:07.097Z,25
2017-08-18T05:20:33.281Z,30
2017-08-18T05:20:59.479Z,30
2017-08-18T05:21:25.690Z,30
2017-08-18T05:21:51.910Z,30
2017-08-18T05:22:18.039Z,30
2017-08-18T05:22:44.182Z,30
2017-08-18T05:23:10.374Z,30
2017-08-18T05:23:36.517Z,35
2017-08-18T05:24:02.717Z,35
2017-08-18T05:24:28.908Z,35
2017-08-18T05:24:55.058Z,35
2017-08-18T05:25:21.269Z,35
2017-08-18T05:25:47.412Z,40
2017-08-18T05:26:13.648Z,40
2017-08-18T05:26:39.902Z,40
2017-08-18T05:27:06.071Z,40
2017-08-18T05:27:32.247Z,45
2017-08-18T05:27:58.371Z,45
2017-08-18T05:28:24.554Z,45
2017-08-18T05:28:50.722Z,45
2017-08-18T05:29:16.878Z,45
2017-08-18T05:29:43.059Z,45
2017-08-18T05:30:09.225Z,45
2017-08-18T05:30:35.417Z,45
2017-08-18T05:31:01.593Z,45
2017-08-18T05:31:27.777Z,40
2017-08-18T05:31:53.982Z,40
2017-08-18T05:32:20.156Z,40
2017-08-18T05:32:46.341Z,40
2017-08-18T05:33:12.557Z,40
2017-08-18T05:33:38.751Z,40
2017-08-18T05:34:04.945Z,40
2017-08-18T05:34:31.185Z,40
2017-08-18T05:34:57.329Z,40
2017-08-18T05:35:23.510Z,40
2017-08-18T05:35:49.666Z,40
2017-08-18T05:36:15.835Z,40
2017-08-18T05:36:41.952Z,45
2017-08-18T05:37:08.095Z,45
2017-08-18T05:37:34.249Z,45
2017-08-18T05:38:00.401Z,45
2017-08-18T05:38:26.597Z,50
2017-08-18T05:38:52.774Z,50
2017-08-18T05:39:18.990Z,50
2017-08-18T05:39:45.153Z,50
2017-08-18T05:40:11.365Z,50
2017-08-18T05:40:37.558Z,50
2017-08-18T05:41:03.753Z,50
2017-08-18T05:41:29.959Z,50
2017-08-18T05:41:56.208Z,45
2017-08-18T05:42:22.383Z,45
2017-08-18T05:42:48.500Z,45
2017-08-18T05:43:14.692Z,45
2017-08-18T05:43:40.836Z,45
2017-08-18T05:44:07.001Z,45
2017-08-18T05:44:33.185Z,40
2017-08-18T05:44:59.399Z,40
2017-08-18T05:45:25.592Z,40
2017-08-18T05:45:51.777Z,40
2017-08-18T05:46:17.977Z,40
2017-08-18T05:46:44.113Z,40
2017-08-18T05:47:10.284Z,40
2017-08-18T05:47:36.429Z,40
2017-08-18T05:48:02.586Z,35
2017-08-18T05:48:28.773Z,35
2017-08-18T05:48:54.939Z,35
2017-08-18T05:49:21.121Z,35
2017-08-18T05:49:47.310Z,40
2017-08-18T05:50:13.479Z,40
2017-08-18T05:50:39.682Z,40
2017-08-18T05:51:05.872Z,40
2017-08-18T05:51:32.050Z,40
2017-08-18T05:51:58.168Z,40
2017-08-18T05:52:24.293Z,40
2017-08-18T05:52:50.461Z,40
2017-08-18T05:53:16.618Z,40
2017-08-18T05:53:42.751Z,40
2017-08-18T05:54:08.965Z,40
2017-08-18T05:54:35.120Z,40
2017-08-18T05:55:01.295Z,40
2017-08-18T05:55:27.495Z,40
2017-08-18T05:55:53.656Z,40
2017-08-18T05:56:19.794Z,45
2017-08-18T05:56:45.990Z,45
2017-08-18T05:57:12.181Z,45
2017-08-18T05:57:38.363Z,45
2017-08-18T05:58:04.504Z,45
2017-08-18T05:58:30.713Z,50
2017-08-18T05:58:56.882Z,50
2017-08-18T05:59:23.009Z,50
2017-08-18T05:59:49.220Z,50
2017-08-18T06:00:15.327Z,50
2017-08-18T06:00:41.524Z,50
2017-08-18T06:01:07.704Z,50
2017-08-18T06:01:33.904Z,50
2017-08-18T06:02:00.061Z,50
2017-08-18T06:02:26.217Z,50
2017-08-18T06:02:52.382Z,50
2017-08-18T06:03:18.536Z,50
2017-08-18T06:03:44.665Z,50
2017-08-18T06:04:10.866Z,50
2017-08-18T06:04:37.045Z,50
2017-08-18T06:05:03.211Z,55
2017-08-18T06:05:29.360Z,55
2017-08-18T06:05:55.573Z,55
2017-08-18T06:06:21.767Z,55
2017-08-18T06:06:47.920Z,55
2017-08-18T06:07:14.116Z,60
2017-08-18T06:07:40.277Z,60
2017-08-18T06:08:06.492Z,60
2017-08-18T06:08:32.710Z,65
2017-08-18T06:08:58.878Z,65
2017-08-18T06:09:25.081Z,65
2017-08-18T06:09:51.288Z,65
2017-08-18T06:10:17.501Z,65
2017-08-18T06:10:43.659Z,65
2017-08-18T06:11:09.833Z,65
2017-08-18T06:11:36.036Z,65
2017-08-18T06:12:02.227Z,65
2017-08-18T06:12:28.403Z,65
2017-08-18T06:12:54.521Z,65
2017-08-18T06:13:20.769Z,65
2017-08-18T06:13:46.950Z,65
2017-08-18T06:14:13.151Z,65
2017-08-18T06:14:39.346Z,65
2017-08-18T06:15:05.558Z,65
2017-08-18T06:15:31.771Z,65
2017-08-18T06:15:57.976Z,65
2017-08-18T06:16:24.175Z,65
2017-08-18T06:16:50.341Z,65
2017-08-18T06:17:16.515Z,65
2017-08-18T06:17:42.628Z,65
2017-08-18T06:18:08.785Z,65
2017-08-18T06:18:34.903Z,65
2017-08-18T06:19:01.064Z,65
2017-08-18T06:19:27.257Z,65
2017-08-18T06:19:53.440Z,65
2017-08-18T06:20:19.553Z,65
2017-08-18T06:20:45.740Z,65
2017-08-18T06:21:11.941Z,65
2017-08-18T06:21:38.133Z,65
2017-08-18T06:22:04.394Z,65
2017-08-18T06:22:30.594Z,65
2017-08-18T06:22:56.775Z,65